createdAt,value
2023-04-08T00:00:54.386Z,4
2023-04-08T00:05:54.959Z,5
2023-04-08T00:10:54.917Z,4
2023-04-08T00:20:54.936Z,4
2023-04-08T00:25:55.061Z,5
2023-04-08T00:30:54.475Z,4
2023-04-08T00:35:54.472Z,5
2023-04-08T00:40:54.481Z,4
2023-04-08T00:45:54.991Z,5
2023-04-08T00:50:54.468Z,4
2023-04-08T00:55:54.484Z,4
2023-04-08T01:00:54.519Z,5
2023-04-08T01:06:12.510Z,4
2023-04-08T01:10:54.515Z,5
2023-04-08T01:15:54.537Z,4
2023-04-08T01:20:55.085Z,4
2023-04-08T01:26:09.523Z,4
2023-04-08T01:30:55.056Z,4
2023-04-08T01:35:54.581Z,3
2023-04-08T01:40:54.576Z,3
2023-04-08T01:46:41.522Z,3
2023-04-08T01:50:58.125Z,4
2023-04-08T02:00:54.606Z,3
2023-04-08T02:05:55.248Z,3
2023-04-08T02:10:55.145Z,3
2023-04-08T02:15:55.150Z,4
2023-04-08T02:20:54.658Z,5
2023-04-08T02:25:55.171Z,5
2023-04-08T02:30:54.673Z,5
2023-04-08T02:35:55.225Z,6
2023-04-08T02:40:54.689Z,5
2023-04-08T02:45:54.737Z,5
2023-04-08T02:55:54.831Z,4
2023-04-08T03:00:55.404Z,4
2023-04-08T03:05:54.722Z,4
2023-04-08T03:10:54.728Z,4
2023-04-08T03:15:54.822Z,3
2023-04-08T03:20:54.746Z,3
2023-04-08T03:25:54.777Z,4
2023-04-08T03:30:54.762Z,5
2023-04-08T03:35:54.826Z,5
2023-04-08T03:45:55.421Z,5
2023-04-08T03:50:55.319Z,5
2023-04-08T03:55:55.318Z,5
2023-04-08T04:00:54.824Z,5
2023-04-08T04:05:55.338Z,5
2023-04-08T04:10:54.837Z,5
2023-04-08T04:15:54.867Z,4
2023-04-08T04:20:54.865Z,6
2023-04-08T04:25:54.861Z,5
2023-04-08T04:30:56.433Z,5
2023-04-08T04:35:55.030Z,5
2023-04-08T04:40:55.557Z,5
2023-04-08T04:45:55.445Z,5
2023-04-08T04:50:54.904Z,5
2023-04-08T04:55:55.430Z,5
2023-04-08T05:00:54.918Z,6
2023-04-08T05:05:54.957Z,6
2023-04-08T05:10:54.946Z,6
2023-04-08T05:15:54.986Z,6
2023-04-08T05:25:55.499Z,6
2023-04-08T05:30:54.981Z,6
2023-04-08T05:35:55.049Z,7
2023-04-08T05:40:55.532Z,7
2023-04-08T05:45:55.026Z,6
2023-04-08T05:50:55.026Z,7
2023-04-08T05:55:55.051Z,6
2023-04-08T06:01:09.398Z,7
2023-04-08T06:05:55.552Z,8
2023-04-08T06:10:55.068Z,7
2023-04-08T06:15:55.071Z,7
2023-04-08T06:20:59.796Z,7
2023-04-08T06:25:55.589Z,7
2023-04-08T06:30:55.587Z,7
2023-04-08T06:35:55.621Z,6
2023-04-08T06:40:55.647Z,6
2023-04-08T06:45:55.135Z,8
2023-04-08T06:50:55.128Z,6
2023-04-08T06:55:55.628Z,6
2023-04-08T07:00:55.670Z,6
2023-04-08T07:05:55.139Z,5
2023-04-08T07:10:55.208Z,6
2023-04-08T07:15:55.216Z,5
2023-04-08T07:20:55.189Z,6
2023-04-08T07:25:55.683Z,5
2023-04-08T07:30:55.249Z,5
2023-04-08T07:35:55.233Z,5
2023-04-08T07:40:55.731Z,6
2023-04-08T07:45:55.726Z,6
2023-04-08T07:55:55.773Z,7
2023-04-08T08:00:55.773Z,5
2023-04-08T08:05:55.280Z,6
2023-04-08T08:10:55.270Z,6
2023-04-08T08:15:55.809Z,6
2023-04-08T08:20:55.293Z,7
2023-04-08T08:25:55.295Z,6
2023-04-08T08:30:55.397Z,7
2023-04-08T08:35:55.329Z,7
2023-04-08T08:45:55.345Z,6
2023-04-08T08:50:55.498Z,7
2023-04-08T09:00:55.376Z,6
2023-04-08T09:05:55.369Z,6
2023-04-08T09:10:55.400Z,8
2023-04-08T09:15:55.383Z,9
2023-04-08T09:20:55.412Z,15
2023-04-08T09:25:55.415Z,7
2023-04-08T09:30:55.403Z,9
2023-04-08T09:35:55.491Z,7
2023-04-08T09:40:56.063Z,7
2023-04-08T09:45:55.494Z,8
2023-04-08T09:50:55.494Z,7
2023-04-08T09:55:55.480Z,8
2023-04-08T10:00:56.090Z,7
2023-04-08T10:05:56.113Z,9
2023-04-08T10:20:55.518Z,11
2023-04-08T10:25:55.648Z,12
2023-04-08T10:30:55.556Z,11
2023-04-08T10:35:56.164Z,8
2023-04-08T10:40:56.154Z,11
2023-04-08T10:45:56.183Z,10
2023-04-08T10:50:56.202Z,10
2023-04-08T10:55:56.184Z,9
2023-04-08T11:00:56.183Z,9
2023-04-08T11:05:56.188Z,9
2023-04-08T11:10:56.270Z,9
2023-04-08T11:15:56.255Z,9
2023-04-08T11:20:57.150Z,9
2023-04-08T11:25:55.630Z,7
2023-04-08T11:30:55.643Z,12
2023-04-08T11:35:56.414Z,10
2023-04-08T11:40:56.266Z,11
2023-04-08T11:45:56.311Z,7
2023-04-08T11:55:55.830Z,5
2023-04-08T12:00:55.698Z,8
2023-04-08T12:05:55.715Z,6
2023-04-08T12:10:58.250Z,5
2023-04-08T12:16:01.773Z,7
2023-04-08T12:20:56.343Z,7
2023-04-08T12:25:55.732Z,7
2023-04-08T12:30:56.251Z,5
2023-04-08T12:40:55.769Z,6
2023-04-08T12:45:55.814Z,6
2023-04-08T12:50:57.172Z,6
2023-04-08T12:55:56.305Z,6
2023-04-08T13:00:56.320Z,6
2023-04-08T13:05:56.323Z,6
2023-04-08T13:10:55.831Z,4
2023-04-08T13:16:01.221Z,5
2023-04-08T13:20:56.357Z,4
2023-04-08T13:30:55.854Z,4
2023-04-08T13:36:14.001Z,4
2023-04-08T13:40:55.891Z,4
2023-04-08T13:45:55.914Z,4
2023-04-08T13:50:55.897Z,16
2023-04-08T13:56:14.003Z,4
2023-04-08T14:00:56.013Z,4
2023-04-08T14:05:55.948Z,4
2023-04-08T14:10:56.665Z,5
2023-04-08T14:20:55.942Z,4
2023-04-08T14:25:55.968Z,4
2023-04-08T14:30:56.601Z,4
2023-04-08T14:35:56.601Z,4
2023-04-08T14:40:55.991Z,4
2023-04-08T14:45:56.666Z,4
2023-04-08T14:50:56.597Z,5
2023-04-08T14:55:56.007Z,4
2023-04-08T15:00:56.616Z,3
2023-04-08T15:05:56.661Z,4
2023-04-08T15:10:56.031Z,4
2023-04-08T15:15:56.098Z,4
2023-04-08T15:20:56.682Z,4
2023-04-08T15:25:56.558Z,5
2023-04-08T15:30:56.124Z,4
2023-04-08T15:35:56.647Z,4
2023-04-08T15:40:56.081Z,5
2023-04-08T15:45:56.115Z,5
2023-04-08T15:50:56.169Z,5
2023-04-08T15:55:56.167Z,5
2023-04-08T16:00:56.138Z,5
2023-04-08T16:05:56.132Z,4
2023-04-08T16:10:56.151Z,6
2023-04-08T16:15:56.163Z,5
2023-04-08T16:20:56.155Z,4
2023-04-08T16:25:56.708Z,4
2023-04-08T16:30:56.189Z,6
2023-04-08T16:35:56.896Z,5
2023-04-08T16:40:56.199Z,6
2023-04-08T16:45:56.313Z,25
2023-04-08T16:50:56.229Z,21
2023-04-08T16:55:56.870Z,19
2023-04-08T17:00:56.881Z,18
2023-04-08T17:05:56.860Z,8
2023-04-08T17:10:56.856Z,20
2023-04-08T17:15:56.873Z,7
2023-04-08T17:20:56.896Z,6
2023-04-08T17:25:56.420Z,14
2023-04-08T17:30:56.791Z,7
2023-04-08T17:35:56.325Z,5
2023-04-08T17:40:56.850Z,8
2023-04-08T17:45:56.351Z,5
2023-04-08T17:50:56.842Z,14
2023-04-08T17:55:56.376Z,6
2023-04-08T18:00:56.356Z,18
2023-04-08T18:05:56.872Z,8
2023-04-08T18:10:56.382Z,16
2023-04-08T18:15:56.465Z,8
2023-04-08T18:20:56.903Z,19
2023-04-08T18:25:56.428Z,16
2023-04-08T18:30:56.944Z,11
2023-04-08T18:35:57.697Z,7
2023-04-08T18:40:56.922Z,5
2023-04-08T18:45:56.940Z,7
2023-04-08T18:50:56.963Z,15
2023-04-08T18:55:56.962Z,7
2023-04-08T19:00:56.966Z,7
2023-04-08T19:05:57.074Z,7
2023-04-08T19:11:01.332Z,7
2023-04-08T19:15:57.004Z,9
2023-04-08T19:20:56.503Z,7
2023-04-08T19:25:56.492Z,8
2023-04-08T19:31:03.081Z,8
2023-04-08T19:35:56.547Z,10
2023-04-08T19:40:56.526Z,8
2023-04-08T19:51:11.586Z,10
2023-04-08T19:55:56.667Z,7
2023-04-08T20:00:57.065Z,9
2023-04-08T20:05:56.587Z,17
2023-04-08T20:11:04.091Z,11
2023-04-08T20:15:56.604Z,13
2023-04-08T20:20:57.108Z,9
2023-04-08T20:25:56.638Z,12
2023-04-08T20:31:11.651Z,10
2023-04-08T20:35:56.641Z,9
2023-04-08T20:40:57.262Z,9
2023-04-08T20:45:56.656Z,10
2023-04-08T20:50:57.194Z,7
2023-04-08T20:55:56.664Z,7
2023-04-08T21:00:56.704Z,8
2023-04-08T21:05:56.691Z,10
2023-04-08T21:10:57.212Z,9
2023-04-08T21:15:56.716Z,7
2023-04-08T21:20:56.703Z,15
2023-04-08T21:30:56.751Z,22
2023-04-08T21:35:56.770Z,9
2023-04-08T21:40:57.309Z,10
2023-04-08T21:45:57.316Z,9
2023-04-08T21:50:56.779Z,18
2023-04-08T21:55:57.299Z,19
2023-04-08T22:00:57.331Z,12
2023-04-08T22:05:56.881Z,11
2023-04-08T22:10:57.324Z,12
2023-04-08T22:20:56.830Z,22
2023-04-08T22:25:57.450Z,11
2023-04-08T22:30:56.883Z,13
2023-04-08T22:35:56.875Z,9
2023-04-08T22:40:56.866Z,10
2023-04-08T22:45:57.397Z,9
2023-04-08T22:50:59.196Z,11
2023-04-08T22:55:56.910Z,12
2023-04-08T23:00:57.407Z,12
2023-04-08T23:05:57.427Z,12
2023-04-08T23:10:56.930Z,14
2023-04-08T23:15:56.985Z,16
2023-04-08T23:20:57.466Z,15
2023-04-08T23:25:57.446Z,16
2023-04-08T23:30:56.962Z,15
2023-04-08T23:35:56.982Z,17
2023-04-08T23:40:57.489Z,18
2023-04-08T23:45:56.975Z,17
2023-04-08T23:50:56.992Z,18
